Time;durP1;ratioP1;P1;durP2;ratioP2;P2;SDS_P1;SDS_P2;PMS_P1;PMS_P2;Temp;Humidity;BMP_temperature;BMP_pressure;BME280_temperature;BME280_humidity;BME280_pressure;Samples;Min_cycle;Max_cycle;Signal;HPM_P1;HPM_P2
2021/04/09 00:02:27;;;;;;;3.93;2.50;;;4.50;64.60;;;;;;6243397;23;20043;-77
2021/04/09 00:04:53;;;;;;;4.77;1.87;;;4.40;65.00;;;;;;6269547;22;20066;-77
2021/04/09 00:07:18;;;;;;;6.43;2.47;;;4.30;65.30;;;;;;6245580;23;20008;-77
2021/04/09 00:09:44;;;;;;;5.27;2.77;;;4.20;65.50;;;;;;6243184;23;20087;-77
2021/04/09 00:12:10;;;;;;;3.87;2.13;;;4.20;65.40;;;;;;6245173;23;20080;-77
2021/04/09 00:14:36;;;;;;;5.67;2.33;;;4.20;65.00;;;;;;6243531;23;20469;-77
2021/04/09 00:17:02;;;;;;;4.37;2.37;;;4.30;65.20;;;;;;6244034;23;20031;-79
2021/04/09 00:19:28;;;;;;;4.23;2.30;;;4.20;65.40;;;;;;6244829;23;20020;-77
2021/04/09 00:21:54;;;;;;;4.17;2.10;;;4.20;65.50;;;;;;6244363;23;20058;-78
2021/04/09 00:24:20;;;;;;;6.87;2.37;;;4.10;66.00;;;;;;6243752;23;20062;-78
2021/04/09 00:26:46;;;;;;;5.13;2.27;;;4.00;66.10;;;;;;6269399;22;20008;-77
2021/04/09 00:29:12;;;;;;;5.70;2.37;;;4.10;66.20;;;;;;6243994;23;20000;-78
2021/04/09 00:31:38;;;;;;;5.63;2.40;;;4.00;66.10;;;;;;6243186;23;20091;-78
2021/04/09 00:34:05;;;;;;;6.20;2.83;;;4.00;66.30;;;;;;6244000;23;20002;-78
2021/04/09 00:36:34;;;;;;;5.37;2.63;;;4.00;66.60;;;;;;6243196;23;20028;-80
2021/04/09 00:38:59;;;;;;;5.13;2.47;;;4.00;66.60;;;;;;6269435;22;20020;-78
2021/04/09 00:41:25;;;;;;;5.10;2.27;;;4.00;66.40;;;;;;6243036;23;20485;-78
2021/04/09 00:43:51;;;;;;;5.87;2.60;;;4.00;66.40;;;;;;6243703;23;20000;-80
2021/04/09 00:46:17;;;;;;;6.30;2.53;;;4.00;66.50;;;;;;6245266;23;20066;-77
2021/04/09 00:48:42;;;;;;;4.57;2.30;;;4.00;66.60;;;;;;6244743;23;20442;-77
2021/04/09 00:51:08;;;;;;;4.53;2.20;;;4.00;66.50;;;;;;6245365;23;20408;-77
2021/04/09 00:53:37;;;;;;;3.93;2.23;;;4.00;66.40;;;;;;6246633;23;20000;-77
2021/04/09 00:56:03;;;;;;;4.87;2.30;;;4.00;66.40;;;;;;6246045;23;20000;-77
2021/04/09 00:58:30;;;;;;;3.87;2.13;;;4.00;66.50;;;;;;6245392;23;20016;-77
2021/04/09 01:00:57;;;;;;;4.93;2.33;;;4.00;66.10;;;;;;6246089;23;20012;-77
2021/04/09 01:03:23;;;;;;;5.67;2.30;;;4.00;66.20;;;;;;6246289;23;20497;-77
2021/04/09 01:05:51;;;;;;;3.80;2.00;;;3.90;66.40;;;;;;6247665;23;19992;-77
2021/04/09 01:08:17;;;;;;;3.50;2.20;;;3.80;66.70;;;;;;6245550;23;20015;-79
2021/04/09 01:10:42;;;;;;;3.87;2.50;;;3.80;67.20;;;;;;6245062;23;20009;-79
2021/04/09 01:13:08;;;;;;;5.30;2.70;;;3.60;67.50;;;;;;6247053;23;20007;-76
2021/04/09 01:15:34;;;;;;;3.27;2.20;;;3.60;68.00;;;;;;6246330;23;20007;-76
2021/04/09 01:18:27;;;;;;;6.07;3.03;;;3.40;68.20;;;;;;6247033;23;20091;-76
2021/04/09 01:21:17;;;;;;;4.53;2.43;;;3.50;68.40;;;;;;6246993;23;20004;-76
2021/04/09 01:23:58;;;;;;;4.53;2.53;;;3.50;69.20;;;;;;6244640;23;20054;-76
2021/04/09 01:26:48;;;;;;;4.63;2.50;;;3.60;68.70;;;;;;6244346;23;20454;-76
2021/04/09 01:29:38;;;;;;;6.33;2.70;;;3.60;68.50;;;;;;6246855;23;20488;-76
2021/04/09 01:32:07;;;;;;;4.73;2.57;;;3.50;68.90;;;;;;6245229;23;20048;-76
2021/04/09 01:34:37;;;;;;;5.97;2.90;;;3.50;69.10;;;;;;6245503;23;20493;-76
2021/04/09 01:37:10;;;;;;;7.20;2.93;;;3.50;69.80;;;;;;6270228;22;20008;-76
2021/04/09 01:39:42;;;;;;;7.27;3.10;;;3.50;70.10;;;;;;6244607;23;20482;-75
2021/04/09 01:42:11;;;;;;;5.45;3.20;;;3.60;70.30;;;;;;6245428;23;20082;-78
2021/04/09 01:44:42;;;;;;;5.10;2.77;;;3.70;70.10;;;;;;6245053;23;20019;-81
2021/04/09 01:47:09;;;;;;;5.78;2.92;;;3.60;70.10;;;;;;6247007;23;20022;-78
2021/04/09 01:49:37;;;;;;;3.90;2.33;;;3.50;70.90;;;;;;6270503;22;20424;-78
2021/04/09 01:52:07;;;;;;;5.20;2.73;;;3.40;71.30;;;;;;6245408;23;20427;-78
2021/04/09 01:54:33;;;;;;;6.27;2.60;;;3.30;71.00;;;;;;6245142;23;20004;-78
2021/04/09 01:57:01;;;;;;;5.97;2.83;;;3.40;70.80;;;;;;6246932;22;19997;-78
2021/04/09 01:59:29;;;;;;;5.57;3.00;;;3.30;71.00;;;;;;6245843;23;19996;-78
2021/04/09 02:01:55;;;;;;;5.27;2.57;;;3.30;70.90;;;;;;6245693;23;20031;-77
2021/04/09 02:04:22;;;;;;;4.77;2.60;;;3.20;71.30;;;;;;6270281;22;20007;-76
2021/04/09 02:06:49;;;;;;;6.67;2.80;;;3.20;71.50;;;;;;6246836;22;20486;-77
2021/04/09 02:09:16;;;;;;;6.10;3.30;;;3.20;71.60;;;;;;6245297;23;20016;-77
2021/04/09 02:11:42;;;;;;;6.63;2.67;;;3.20;71.30;;;;;;6244879;23;20012;-77
2021/04/09 02:14:13;;;;;;;8.40;3.13;;;3.20;71.20;;;;;;6245370;23;20016;-77
2021/04/09 02:16:42;;;;;;;7.17;2.90;;;3.20;71.30;;;;;;6244923;23;20019;-77
2021/04/09 02:19:08;;;;;;;6.17;3.20;;;3.20;71.10;;;;;;6246365;23;20020;-78
2021/04/09 02:21:36;;;;;;;5.70;2.77;;;3.20;70.90;;;;;;6244480;23;20008;-80
2021/04/09 02:24:05;;;;;;;7.47;3.30;;;3.20;70.70;;;;;;6245132;23;20034;-77
2021/04/09 02:26:30;;;;;;;6.13;3.00;;;3.20;70.90;;;;;;6244314;23;20012;-77
2021/04/09 02:28:58;;;;;;;5.70;2.67;;;3.20;70.90;;;;;;6270774;22;20036;-80
2021/04/09 02:31:24;;;;;;;6.97;3.47;;;3.20;70.90;;;;;;6245829;23;20000;-77
2021/04/09 02:33:50;;;;;;;7.63;2.90;;;3.00;71.10;;;;;;6246403;23;20076;-78
2021/04/09 02:36:22;;;;;;;6.17;2.90;;;3.00;71.10;;;;;;6244604;23;20008;-78
2021/04/09 02:39:04;;;;;;;5.10;2.90;;;2.90;71.20;;;;;;6245137;23;20012;-78
2021/04/09 02:41:35;;;;;;;4.57;2.55;;;2.90;71.30;;;;;;6245208;23;20006;-77
2021/04/09 02:44:02;;;;;;;6.20;2.97;;;2.90;71.40;;;;;;6245188;23;20327;-78
2021/04/09 02:46:33;;;;;;;8.13;2.60;;;2.80;71.60;;;;;;6245730;23;20019;-77
2021/04/09 02:49:04;;;;;;;6.50;3.10;;;2.70;71.80;;;;;;6246144;23;20447;-78
2021/04/09 02:51:31;;;;;;;9.35;4.18;;;2.70;71.80;;;;;;6244184;23;20095;-78
2021/04/09 02:54:00;;;;;;;9.43;4.47;;;2.70;71.60;;;;;;6246480;23;20130;-77
2021/04/09 02:56:27;;;;;;;8.30;4.20;;;2.70;71.70;;;;;;6243512;23;20015;-77
2021/04/09 02:58:55;;;;;;;7.80;3.47;;;2.70;71.40;;;;;;6270132;22;20004;-78
2021/04/09 03:01:23;;;;;;;7.40;4.20;;;2.70;71.40;;;;;;6244653;23;20004;-79
2021/04/09 03:03:54;;;;;;;9.37;4.20;;;2.70;71.10;;;;;;6244912;23;20008;-79
2021/04/09 03:06:20;;;;;;;7.20;3.43;;;2.80;71.00;;;;;;6246109;23;20028;-78
2021/04/09 03:08:47;;;;;;;7.73;3.47;;;2.70;70.60;;;;;;6243902;23;20431;-77
2021/04/09 03:11:13;;;;;;;6.33;3.20;;;2.70;71.00;;;;;;6246011;23;20324;-78
2021/04/09 03:13:39;;;;;;;6.17;3.00;;;2.60;71.60;;;;;;6243799;23;20195;-77
2021/04/09 03:16:07;;;;;;;3.83;2.73;;;2.60;72.00;;;;;;6243965;23;20058;-77
2021/04/09 03:18:38;;;;;;;8.00;2.87;;;2.40;72.10;;;;;;6244180;23;20030;-77
2021/04/09 03:21:05;;;;;;;3.72;2.25;;;2.40;72.40;;;;;;6244797;23;20005;-77
2021/04/09 03:23:31;;;;;;;4.20;2.53;;;2.40;72.00;;;;;;6243662;23;20054;-77
2021/04/09 03:25:56;;;;;;;4.57;2.43;;;2.40;72.20;;;;;;6244170;23;20367;-77
2021/04/09 03:28:22;;;;;;;6.43;2.60;;;2.40;72.00;;;;;;6245123;23;20074;-76
2021/04/09 03:30:50;;;;;;;4.73;2.40;;;2.30;71.90;;;;;;6270341;22;20091;-77
2021/04/09 03:33:18;;;;;;;4.63;2.73;;;2.40;71.90;;;;;;6244392;23;20004;-77
2021/04/09 03:35:43;;;;;;;4.33;2.27;;;2.40;72.10;;;;;;6243428;23;20012;-77
2021/04/09 03:38:09;;;;;;;5.63;2.57;;;2.30;72.20;;;;;;6244150;23;20015;-77
2021/04/09 03:40:35;;;;;;;5.60;2.57;;;2.30;72.40;;;;;;6244949;23;19996;-77
2021/04/09 03:43:01;;;;;;;4.77;2.43;;;2.30;72.30;;;;;;6244189;23;20019;-77
2021/04/09 03:45:27;;;;;;;4.57;2.40;;;2.20;72.60;;;;;;6243266;23;20004;-76
2021/04/09 03:47:58;;;;;;;4.47;2.40;;;2.20;72.40;;;;;;5151993;27;20341;-78
2021/04/09 03:50:24;;;;;;;4.60;2.33;;;2.20;72.30;;;;;;5099699;28;20032;-77
2021/04/09 03:52:49;;;;;;;5.37;2.57;;;2.20;72.20;;;;;;5108992;28;20023;-77
2021/04/09 03:55:16;;;;;;;4.70;2.57;;;2.20;72.30;;;;;;5096317;28;20019;-77
2021/04/09 03:57:41;;;;;;;7.17;2.67;;;2.20;72.50;;;;;;5123624;28;20680;-78
2021/04/09 04:00:08;;;;;;;4.73;2.40;;;2.20;72.30;;;;;;5120955;28;20073;-79
2021/04/09 04:02:33;;;;;;;5.40;2.43;;;2.20;72.20;;;;;;5116343;28;20074;-78
2021/04/09 04:04:59;;;;;;;7.93;2.63;;;2.20;72.20;;;;;;5110302;28;20031;-79
2021/04/09 04:07:25;;;;;;;4.13;2.40;;;2.20;72.00;;;;;;5125760;28;20024;-79
2021/04/09 04:09:50;;;;;;;7.07;2.50;;;2.20;72.00;;;;;;5100512;28;20027;-79
2021/04/09 04:12:16;;;;;;;6.13;2.50;;;2.20;72.20;;;;;;5119166;28;20035;-79
2021/04/09 04:14:41;;;;;;;5.73;2.00;;;2.20;72.30;;;;;;5107055;28;20031;-80
2021/04/09 04:17:07;;;;;;;6.23;2.13;;;2.20;72.10;;;;;;5095737;28;20032;-79
2021/04/09 04:19:33;;;;;;;4.43;2.30;;;2.20;71.90;;;;;;5106745;28;20026;-80
2021/04/09 04:21:58;;;;;;;5.13;2.43;;;2.20;71.80;;;;;;5119718;28;20049;-80
2021/04/09 04:24:24;;;;;;;4.60;2.47;;;2.30;72.30;;;;;;5099607;28;20053;-79
2021/04/09 04:26:50;;;;;;;4.57;2.30;;;2.30;71.70;;;;;;5109238;28;20032;-80
2021/04/09 04:29:15;;;;;;;4.40;2.37;;;2.30;71.50;;;;;;5095751;28;20050;-79
2021/04/09 04:31:42;;;;;;;5.10;2.27;;;2.30;71.50;;;;;;5105440;28;20024;-79
2021/04/09 04:34:07;;;;;;;4.73;2.37;;;2.30;71.50;;;;;;5102673;28;20532;-79
2021/04/09 04:36:34;;;;;;;8.93;2.70;;;2.30;71.40;;;;;;5112005;28;20114;-79
2021/04/09 04:38:59;;;;;;;6.67;2.60;;;2.30;71.60;;;;;;5113553;28;20103;-79
2021/04/09 04:41:25;;;;;;;5.53;2.53;;;2.20;71.60;;;;;;5107142;28;20110;-79
2021/04/09 04:43:50;;;;;;;4.47;2.33;;;2.30;71.80;;;;;;5100284;28;20051;-80
2021/04/09 04:46:16;;;;;;;5.17;2.57;;;2.30;71.70;;;;;;5118648;28;20510;-80
2021/04/09 04:48:42;;;;;;;6.93;2.60;;;2.20;71.90;;;;;;5124765;28;20050;-80
2021/04/09 04:51:07;;;;;;;5.63;2.33;;;2.30;72.00;;;;;;5094857;28;20047;-79
2021/04/09 04:53:33;;;;;;;5.03;2.70;;;2.30;71.90;;;;;;5111614;28;20065;-79
2021/04/09 04:55:59;;;;;;;6.67;2.60;;;2.30;71.50;;;;;;5102767;28;20028;-79
2021/04/09 04:58:25;;;;;;;6.73;2.67;;;2.30;71.40;;;;;;5095798;28;20604;-79
2021/04/09 05:00:50;;;;;;;5.27;2.10;;;2.30;71.40;;;;;;5081989;28;20020;-79
2021/04/09 05:03:16;;;;;;;6.80;2.60;;;2.30;71.30;;;;;;5094961;28;20480;-79
2021/04/09 05:05:42;;;;;;;6.27;2.77;;;2.30;71.60;;;;;;5103410;28;20027;-79
2021/04/09 05:08:07;;;;;;;5.47;2.67;;;2.30;72.50;;;;;;5087797;28;20032;-79
2021/04/09 05:10:33;;;;;;;3.00;1.60;;;2.30;71.90;;;;;;5091152;28;20027;-79
2021/04/09 05:12:59;;;;;;;4.80;2.00;;;2.30;72.00;;;;;;5080922;28;20385;-79
2021/04/09 05:15:24;;;;;;;4.87;2.10;;;2.30;72.00;;;;;;5092808;28;20358;-78
2021/04/09 05:17:50;;;;;;;4.17;2.10;;;2.30;71.90;;;;;;5085283;28;20477;-79
2021/04/09 05:20:16;;;;;;;6.50;2.40;;;2.30;71.90;;;;;;5086251;28;20052;-79
2021/04/09 05:22:41;;;;;;;3.73;2.03;;;2.30;71.90;;;;;;5110066;28;20976;-79
2021/04/09 05:25:08;;;;;;;6.57;2.03;;;2.30;72.00;;;;;;5080938;28;20031;-78
2021/04/09 05:27:33;;;;;;;6.10;2.20;;;2.40;72.20;;;;;;5091000;28;20066;-77
2021/04/09 05:29:59;;;;;;;3.90;2.17;;;2.50;71.90;;;;;;5086321;28;20059;-78
2021/04/09 05:32:25;;;;;;;5.33;2.20;;;2.50;71.50;;;;;;5083657;28;20066;-77
2021/04/09 05:34:51;;;;;;;2.93;2.00;;;2.50;71.40;;;;;;5093432;28;20081;-78
2021/04/09 05:37:17;;;;;;;6.10;2.23;;;2.60;71.30;;;;;;5111734;28;20024;-78
2021/04/09 05:39:42;;;;;;;4.27;2.30;;;2.60;71.20;;;;;;5083235;28;20469;-77
2021/04/09 05:42:08;;;;;;;5.33;2.10;;;2.60;71.10;;;;;;5097157;28;20468;-78
2021/04/09 05:44:34;;;;;;;4.90;2.00;;;2.70;71.40;;;;;;5082584;28;20473;-77
2021/04/09 05:47:10;;;;;;;4.60;2.10;;;2.80;71.00;;;;;;5089897;28;20106;-78
2021/04/09 05:49:36;;;;;;;3.50;1.87;;;2.80;70.90;;;;;;5078984;28;20024;-78
2021/04/09 05:52:03;;;;;;;5.00;2.23;;;2.80;71.10;;;;;;5085557;28;20032;-78
2021/04/09 05:54:28;;;;;;;4.87;2.13;;;2.90;71.00;;;;;;5086172;28;20024;-78
2021/04/09 05:56:54;;;;;;;5.23;2.70;;;3.00;70.90;;;;;;5077926;28;20030;-78
2021/04/09 05:59:20;;;;;;;3.80;2.30;;;3.10;70.90;;;;;;5091308;28;20020;-79
2021/04/09 06:01:45;;;;;;;4.50;2.47;;;3.10;70.10;;;;;;5081097;28;20028;-78
2021/04/09 06:04:11;;;;;;;9.83;2.60;;;3.20;70.30;;;;;;5083379;28;20084;-78
2021/04/09 06:06:36;;;;;;;4.43;2.40;;;3.30;70.00;;;;;;5088102;28;20579;-77
2021/04/09 06:09:03;;;;;;;3.73;2.17;;;3.30;69.50;;;;;;5075804;28;20032;-78
2021/04/09 06:11:30;;;;;;;5.83;2.13;;;3.40;69.40;;;;;;5087210;28;20115;-78
2021/04/09 06:13:56;;;;;;;3.90;2.40;;;3.40;69.50;;;;;;5081797;28;20055;-78
2021/04/09 06:16:22;;;;;;;5.37;2.30;;;3.50;69.00;;;;;;5093142;28;20075;-78
2021/04/09 06:18:48;;;;;;;9.23;2.50;;;3.60;69.20;;;;;;5093075;28;20031;-79
2021/04/09 06:21:13;;;;;;;6.30;2.40;;;3.70;69.30;;;;;;5076461;28;20032;-79
2021/04/09 06:23:39;;;;;;;4.97;2.60;;;3.70;69.60;;;;;;5086418;28;20028;-78
2021/04/09 06:26:04;;;;;;;4.70;2.50;;;3.80;69.40;;;;;;5082953;28;20134;-78
2021/04/09 06:28:30;;;;;;;5.33;2.17;;;3.90;69.40;;;;;;5079031;28;20358;-79
2021/04/09 06:30:56;;;;;;;4.07;2.47;;;4.00;68.70;;;;;;5089658;28;20097;-79
2021/04/09 06:33:21;;;;;;;3.93;2.20;;;4.00;68.50;;;;;;5077478;28;20379;-78
2021/04/09 06:35:47;;;;;;;5.67;2.30;;;4.10;68.80;;;;;;5087946;28;20020;-79
2021/04/09 06:38:13;;;;;;;7.53;2.57;;;4.10;68.50;;;;;;5081577;28;20445;-78
2021/04/09 06:40:40;;;;;;;7.30;2.60;;;4.20;68.80;;;;;;5086415;28;20052;-78
2021/04/09 06:43:06;;;;;;;6.33;2.70;;;4.30;68.90;;;;;;5090848;28;20051;-78
2021/04/09 06:45:32;;;;;;;5.13;2.70;;;4.30;68.10;;;;;;5078124;28;20571;-78
2021/04/09 06:47:58;;;;;;;5.13;2.80;;;4.40;68.30;;;;;;5066927;28;20063;-78
2021/04/09 06:50:24;;;;;;;6.30;2.60;;;4.40;68.10;;;;;;5067465;28;20055;-77
2021/04/09 06:52:50;;;;;;;7.73;2.90;;;4.50;68.00;;;;;;5059581;28;20032;-78
2021/04/09 06:55:20;;;;;;;5.63;2.87;;;4.50;68.50;;;;;;5071969;28;20016;-78
2021/04/09 06:57:47;;;;;;;4.40;2.60;;;4.60;67.60;;;;;;5062074;28;20035;-77
2021/04/09 07:00:14;;;;;;;5.47;2.83;;;4.70;67.40;;;;;;5064458;28;20029;-77
2021/04/09 07:02:44;;;;;;;8.00;3.50;;;4.70;67.60;;;;;;5069276;28;20028;-77
2021/04/09 07:05:14;;;;;;;5.40;3.07;;;4.80;68.10;;;;;;5059474;28;20477;-78
2021/04/09 07:07:39;;;;;;;11.40;3.00;;;4.90;67.90;;;;;;5074543;28;20538;-78
2021/04/09 07:10:06;;;;;;;4.43;2.83;;;4.90;67.40;;;;;;5075466;28;20028;-77
2021/04/09 07:12:34;;;;;;;6.03;2.60;;;5.00;67.80;;;;;;5061047;28;20035;-78
2021/04/09 07:15:04;;;;;;;4.60;2.83;;;5.10;67.80;;;;;;5089782;28;20044;-78
2021/04/09 07:17:38;;;;;;;4.70;2.70;;;5.10;67.20;;;;;;5077569;28;20040;-78
2021/04/09 07:20:07;;;;;;;6.33;2.93;;;5.20;66.90;;;;;;5065883;28;20202;-78
2021/04/09 07:22:32;;;;;;;4.10;2.87;;;5.30;65.30;;;;;;5068132;28;20024;-78
2021/04/09 07:25:07;;;;;;;7.37;2.80;;;5.40;64.60;;;;;;5076774;28;20528;-78
2021/04/09 07:27:32;;;;;;;6.97;3.07;;;5.50;63.80;;;;;;5069514;28;20504;-78
2021/04/09 07:29:58;;;;;;;8.17;3.10;;;5.60;63.20;;;;;;5064198;28;20055;-81
2021/04/09 07:32:26;;;;;;;4.73;2.60;;;5.80;61.90;;;;;;5061799;28;20498;-80
2021/04/09 07:34:53;;;;;;;6.83;3.40;;;5.80;62.60;;;;;;5089240;28;20097;-80
2021/04/09 07:37:20;;;;;;;6.67;3.03;;;5.90;62.70;;;;;;5059050;28;20103;-80
2021/04/09 07:39:46;;;;;;;7.60;3.73;;;5.90;62.30;;;;;;5085500;28;20028;-81
2021/04/09 07:42:13;;;;;;;5.53;3.10;;;5.90;62.20;;;;;;5072975;28;20072;-81
2021/04/09 07:44:39;;;;;;;4.90;2.93;;;5.90;63.00;;;;;;5075050;28;20082;-81
2021/04/09 07:47:15;;;;;;;8.40;2.90;;;6.00;61.80;;;;;;5079756;28;20073;-80
2021/04/09 07:49:42;;;;;;;4.47;2.90;;;6.10;61.80;;;;;;5092199;28;20023;-79
2021/04/09 07:52:12;;;;;;;4.63;3.27;;;6.10;61.40;;;;;;5112596;28;20034;-79
2021/04/09 07:54:38;;;;;;;6.70;2.73;;;6.20;61.30;;;;;;5091497;28;20115;-79
2021/04/09 07:57:04;;;;;;;5.23;3.13;;;6.20;61.50;;;;;;5094897;28;20118;-80
2021/04/09 07:59:41;;;;;;;7.37;3.30;;;6.20;62.10;;;;;;5094478;28;20088;-80
2021/04/09 08:02:10;;;;;;;4.50;2.90;;;6.20;61.80;;;;;;5111741;28;20023;-78
2021/04/09 08:04:40;;;;;;;5.30;2.87;;;6.30;61.80;;;;;;5091274;28;20081;-79
2021/04/09 08:07:06;;;;;;;4.80;2.87;;;6.50;60.90;;;;;;5094793;28;20055;-79
2021/04/09 08:09:51;;;;;;;6.07;3.50;;;6.50;60.90;;;;;;5094241;28;20024;-79
2021/04/09 08:12:30;;;;;;;5.07;2.87;;;6.70;60.70;;;;;;5089502;28;20461;-80
2021/04/09 08:15:10;;;;;;;6.00;2.80;;;6.80;60.50;;;;;;5094747;28;20034;-80
2021/04/09 08:17:36;;;;;;;9.80;3.23;;;6.90;59.90;;;;;;5111802;28;20043;-79
2021/04/09 08:20:15;;;;;;;4.33;2.70;;;7.10;58.80;;;;;;5094772;28;20038;-79
2021/04/09 08:22:42;;;;;;;4.50;2.43;;;7.20;58.70;;;;;;5092974;28;20102;-80
2021/04/09 08:25:09;;;;;;;34.27;14.83;;;7.30;57.50;;;;;;5094716;28;20020;-80
2021/04/09 08:27:37;;;;;;;5.50;3.40;;;7.40;57.00;;;;;;5094139;28;20027;-79
2021/04/09 08:30:04;;;;;;;24.90;11.37;;;7.60;57.90;;;;;;5094599;28;20118;-79
2021/04/09 08:32:31;;;;;;;7.13;2.93;;;7.60;54.70;;;;;;5094417;28;20476;-78
2021/04/09 08:35:00;;;;;;;5.13;2.93;;;7.80;54.30;;;;;;5098829;28;20042;-78
2021/04/09 08:37:27;;;;;;;5.07;2.50;;;7.90;52.70;;;;;;5094740;28;20046;-79
2021/04/09 08:39:54;;;;;;;6.63;2.70;;;8.00;52.30;;;;;;5098711;28;20019;-79
2021/04/09 08:42:19;;;;;;;7.07;3.13;;;8.00;52.50;;;;;;5103918;28;20510;-79
2021/04/09 08:44:46;;;;;;;5.50;2.83;;;8.10;53.30;;;;;;5082343;28;20024;-80
2021/04/09 08:47:15;;;;;;;5.40;2.87;;;8.20;53.30;;;;;;5093602;28;20082;-78
2021/04/09 08:49:40;;;;;;;5.40;2.50;;;8.30;53.50;;;;;;5087560;28;20025;-79
2021/04/09 08:52:08;;;;;;;8.23;2.83;;;8.40;53.30;;;;;;5086244;28;20350;-80
2021/04/09 08:54:33;;;;;;;4.53;2.70;;;8.50;53.00;;;;;;5096338;28;20411;-82
2021/04/09 08:57:03;;;;;;;6.37;2.80;;;8.50;52.60;;;;;;5095237;28;20052;-80
2021/04/09 08:59:38;;;;;;;4.07;2.37;;;8.50;52.60;;;;;;5080478;28;20016;-80
2021/04/09 09:02:27;;;;;;;5.20;2.50;;;8.60;52.70;;;;;;5095366;28;20028;-79
2021/04/09 09:04:59;;;;;;;5.30;2.27;;;8.60;52.60;;;;;;5079092;28;20029;-80
2021/04/09 09:07:43;;;;;;;5.38;2.50;;;8.60;52.50;;;;;;5079081;28;20040;-79
2021/04/09 09:10:27;;;;;;;6.90;2.87;;;8.60;52.40;;;;;;5092474;28;20024;-79
2021/04/09 09:13:05;;;;;;;6.23;2.73;;;8.70;52.40;;;;;;5094203;28;20032;-78
2021/04/09 09:15:52;;;;;;;5.47;2.65;;;8.70;52.80;;;;;;5091654;28;20020;-78
2021/04/09 09:18:33;;;;;;;6.03;2.93;;;8.80;51.70;;;;;;5092742;28;20078;-79
2021/04/09 09:21:13;;;;;;;6.95;2.78;;;8.90;52.70;;;;;;5094698;28;20020;-83
2021/04/09 09:23:52;;;;;;;5.63;2.83;;;9.10;52.90;;;;;;5094042;28;20023;-79
2021/04/09 09:26:40;;;;;;;5.13;2.55;;;9.30;53.20;;;;;;5089726;28;20043;-78
2021/04/09 09:29:23;;;;;;;12.73;6.10;;;9.30;51.20;;;;;;5077776;28;20021;-80
2021/04/09 09:31:49;;;;;;;29.73;12.85;;;9.40;51.30;;;;;;5086268;28;20024;-77
2021/04/09 09:34:18;;;;;;;7.90;3.65;;;9.50;51.80;;;;;;5074550;28;20097;-74
2021/04/09 09:37:11;;;;;;;6.70;3.30;;;9.60;51.60;;;;;;5090420;28;20028;-75
2021/04/09 09:39:45;;;;;;;4.97;2.85;;;9.70;51.40;;;;;;5080182;28;20047;-77
2021/04/09 09:42:34;;;;;;;7.28;2.65;;;9.70;50.60;;;;;;5082385;28;20024;-77
2021/04/09 09:45:04;;;;;;;4.55;2.70;;;9.80;49.50;;;;;;5092027;28;20058;-75
2021/04/09 09:47:34;;;;;;;5.55;2.70;;;9.90;49.60;;;;;;5105844;28;20055;-76
2021/04/09 09:50:10;;;;;;;4.78;2.47;;;10.00;49.50;;;;;;5114313;28;20031;-76
2021/04/09 09:53:06;;;;;;;5.68;2.40;;;10.10;49.60;;;;;;5114165;28;20020;-80
2021/04/09 09:55:36;;;;;;;7.75;2.55;;;10.20;48.30;;;;;;5089961;28;20047;-78
2021/04/09 09:58:02;;;;;;;6.00;2.63;;;10.30;46.80;;;;;;5096389;28;20123;-76
2021/04/09 10:00:29;;;;;;;5.45;2.40;;;10.40;46.90;;;;;;5113970;28;20131;-76
2021/04/09 10:03:17;;;;;;;4.70;1.88;;;10.30;47.30;;;;;;5096190;28;20038;-74
2021/04/09 10:05:49;;;;;;;4.75;2.08;;;10.30;44.00;;;;;;5094267;28;20020;-74
2021/04/09 10:08:15;;;;;;;4.10;1.85;;;10.40;45.70;;;;;;5087235;28;20031;-74
2021/04/09 10:10:51;;;;;;;4.82;2.10;;;10.40;45.50;;;;;;5080241;28;20499;-75
2021/04/09 10:13:18;;;;;;;3.65;1.90;;;10.40;45.80;;;;;;5093614;28;20063;-74
2021/04/09 10:15:45;;;;;;;3.55;2.08;;;10.60;44.80;;;;;;5099942;28;20028;-74
2021/04/09 10:18:10;;;;;;;5.95;3.25;;;10.60;44.60;;;;;;5090037;28;20118;-74
2021/04/09 10:20:37;;;;;;;4.75;2.70;;;10.70;45.90;;;;;;5098726;28;20103;-73
2021/04/09 10:23:04;;;;;;;3.92;2.40;;;10.80;45.60;;;;;;5092429;28;20027;-75
2021/04/09 10:25:31;;;;;;;40.05;17.52;;;10.90;45.80;;;;;;5097582;28;20077;-75
2021/04/09 10:27:57;;;;;;;41.60;19.83;;;11.10;46.20;;;;;;5086802;28;20023;-74
2021/04/09 10:30:33;;;;;;;8.43;3.50;;;11.20;45.70;;;;;;5103540;28;20520;-74
2021/04/09 10:32:58;;;;;;;4.38;2.47;;;11.20;45.50;;;;;;5094744;28;20024;-74
2021/04/09 10:35:25;;;;;;;5.03;2.55;;;11.30;44.90;;;;;;5079282;28;20021;-75
2021/04/09 10:38:05;;;;;;;4.82;2.03;;;11.30;45.50;;;;;;5075602;28;20094;-73
2021/04/09 10:40:31;;;;;;;4.35;1.90;;;11.40;44.30;;;;;;5106917;28;20140;-74
2021/04/09 10:43:01;;;;;;;4.60;1.98;;;11.50;44.80;;;;;;5095325;28;20033;-74
2021/04/09 10:45:27;;;;;;;3.15;1.92;;;11.50;44.00;;;;;;5090047;28;20024;-74
2021/04/09 10:47:54;;;;;;;3.60;2.05;;;11.50;44.10;;;;;;5093939;28;20048;-74
2021/04/09 10:50:20;;;;;;;5.28;2.28;;;11.50;44.40;;;;;;5095174;28;20020;-74
2021/04/09 10:52:46;;;;;;;3.20;2.00;;;11.60;44.90;;;;;;5097555;28;20180;-74
2021/04/09 10:55:12;;;;;;;4.85;2.17;;;11.70;44.80;;;;;;5112130;28;20076;-75
2021/04/09 10:57:38;;;;;;;3.85;2.00;;;11.80;43.30;;;;;;5093947;28;20116;-74
2021/04/09 11:00:05;;;;;;;3.70;2.00;;;11.90;43.80;;;;;;5113293;28;20464;-74
2021/04/09 11:02:33;;;;;;;4.05;2.20;;;12.00;43.40;;;;;;5094738;28;20456;-74
2021/04/09 11:05:01;;;;;;;5.10;1.90;;;12.10;43.90;;;;;;5078357;28;20031;-75
2021/04/09 11:07:47;;;;;;;2.75;1.70;;;12.10;42.80;;;;;;5098954;28;20508;-75
2021/04/09 11:10:31;;;;;;;5.05;2.00;;;12.20;43.80;;;;;;5113018;28;20072;-74
2021/04/09 11:12:56;;;;;;;3.55;1.80;;;12.30;43.50;;;;;;5111752;28;20077;-74
2021/04/09 11:15:22;;;;;;;4.43;1.77;;;12.40;43.90;;;;;;5084966;28;20028;-79
2021/04/09 11:18:03;;;;;;;3.78;1.80;;;12.40;42.60;;;;;;5101988;28;20103;-79
2021/04/09 11:20:32;;;;;;;4.70;1.95;;;12.50;42.80;;;;;;5090041;28;20122;-79
2021/04/09 11:23:06;;;;;;;3.33;1.90;;;12.50;42.00;;;;;;5079456;28;20020;-79
2021/04/09 11:25:36;;;;;;;4.40;1.95;;;12.50;42.60;;;;;;5085656;28;20055;-78
2021/04/09 11:28:02;;;;;;;5.07;1.85;;;12.60;43.10;;;;;;5090217;28;20035;-78
2021/04/09 11:30:36;;;;;;;4.57;1.95;;;12.70;42.20;;;;;;5084853;28;20028;-79
2021/04/09 11:33:03;;;;;;;4.55;2.10;;;12.80;42.50;;;;;;5086591;28;20071;-79
2021/04/09 11:35:38;;;;;;;3.65;1.52;;;12.90;41.70;;;;;;5112200;28;20023;-76
2021/04/09 11:38:14;;;;;;;4.95;1.80;;;13.00;42.20;;;;;;5085283;28;20115;-76
2021/04/09 11:40:42;;;;;;;3.42;2.10;;;13.10;41.60;;;;;;5082429;28;20020;-76
2021/04/09 11:43:10;;;;;;;3.38;1.90;;;13.20;41.10;;;;;;5093889;28;20051;-75
2021/04/09 11:45:44;;;;;;;8.02;2.80;;;13.10;41.30;;;;;;5091361;28;20381;-76
2021/04/09 11:48:33;;;;;;;6.80;1.95;;;13.20;41.90;;;;;;5084848;28;20036;-75
2021/04/09 11:51:21;;;;;;;4.63;2.03;;;13.30;42.40;;;;;;5096036;28;20048;-74
2021/04/09 11:54:03;;;;;;;2.25;1.65;;;13.40;41.60;;;;;;5086288;28;20021;-75
2021/04/09 11:56:38;;;;;;;;;;;13.40;41.00;;;;;;5087523;28;20028;-75
2021/04/09 11:59:15;;;;;;;8.20;1.90;;;13.50;41.10;;;;;;5092407;28;19915;-74
2021/04/09 12:01:42;;;;;;;3.25;1.50;;;13.70;41.30;;;;;;5083719;28;20363;-74
2021/04/09 12:04:32;;;;;;;5.45;2.25;;;13.80;41.30;;;;;;5079007;28;20028;-74
2021/04/09 12:06:58;;;;;;;2.40;1.50;;;14.00;40.90;;;;;;5077468;28;20032;-74
2021/04/09 12:09:23;;;;;;;4.55;1.75;;;14.20;40.50;;;;;;5089443;28;20077;-78
2021/04/09 12:11:49;;;;;;;3.92;1.60;;;14.50;40.30;;;;;;5107206;28;20023;-76
2021/04/09 12:14:31;;;;;;;4.53;1.85;;;14.60;40.20;;;;;;5087106;28;20078;-75
2021/04/09 12:16:56;;;;;;;3.85;1.80;;;14.70;39.10;;;;;;5087949;28;20047;-75
2021/04/09 12:19:22;;;;;;;6.10;1.90;;;14.90;39.30;;;;;;5103056;28;20469;-75
2021/04/09 12:21:48;;;;;;;6.28;1.95;;;15.10;38.90;;;;;;5084674;28;20411;-74
2021/04/09 12:24:14;;;;;;;3.17;1.83;;;15.20;37.90;;;;;;5086811;28;20460;-75
2021/04/09 12:26:39;;;;;;;3.90;1.80;;;15.30;38.30;;;;;;5088005;28;20027;-75
2021/04/09 12:29:05;;;;;;;2.58;1.60;;;15.50;38.10;;;;;;5103833;28;20036;-77
2021/04/09 12:31:31;;;;;;;2.55;1.75;;;15.60;38.00;;;;;;5096345;28;20035;-74
2021/04/09 12:33:56;;;;;;;3.38;1.83;;;15.60;38.20;;;;;;5095436;28;20027;-76
2021/04/09 12:36:22;;;;;;;4.25;1.75;;;15.60;38.50;;;;;;5097513;28;20450;-76
2021/04/09 12:38:47;;;;;;;3.60;1.83;;;15.60;37.60;;;;;;5096974;28;20241;-76
2021/04/09 12:41:13;;;;;;;2.88;1.63;;;15.70;38.00;;;;;;5091723;28;20028;-76
2021/04/09 12:43:38;;;;;;;3.17;1.60;;;15.70;38.10;;;;;;5091575;28;20028;-76
2021/04/09 12:46:04;;;;;;;3.38;1.80;;;15.80;37.60;;;;;;5115765;28;20420;-76
2021/04/09 12:48:30;;;;;;;4.63;1.50;;;15.90;37.60;;;;;;5102028;28;20032;-77
2021/04/09 12:50:55;;;;;;;2.58;1.15;;;16.10;37.50;;;;;;5094050;28;20023;-78
2021/04/09 12:53:21;;;;;;;2.65;1.50;;;16.20;36.90;;;;;;5082326;28;20032;-76
2021/04/09 12:55:46;;;;;;;3.10;1.30;;;16.50;37.40;;;;;;5089050;28;20020;-76
2021/04/09 12:58:13;;;;;;;4.55;1.63;;;16.60;36.30;;;;;;5104888;28;20361;-76
2021/04/09 13:00:38;;;;;;;4.50;1.70;;;16.70;35.90;;;;;;5088624;28;20069;-75
2021/04/09 13:03:04;;;;;;;3.88;1.58;;;16.70;35.80;;;;;;5105869;28;20027;-76
2021/04/09 13:05:30;;;;;;;4.50;1.40;;;16.80;35.60;;;;;;5085649;28;20019;-77